Terminal Aerodrome Forecast
Issued by NWS

Home | Current Version | Previous Version | Text Only | Print | Product List | Glossary On
Versions: 1 2 3 4 5 6 7 8 9 10 11 12 13 14 15 16 17 18 19 20 21 22 23 24 25 26 27 28 29
000
FTUS43 KDLH 300500
TAFBRD
TAF
KBRD 300529Z 3006/3106 00000KT 5SM BR OVC023
      TEMPO 3006/3008 1SM BR BKN015
     FM300800 00000KT 2SM BR BKN007
      TEMPO 3008/3012 3/4SM BR OVC004
     FM301500 01005KT P6SM BKN015
     FM301800 VRB05KT P6SM VCSH BKN030
     FM302200 VRB05KT P6SM SCT050=

USA.gov is the U.S. government's official web portal to all federal, state and local government web resources and services.